sensor_id;sensor_type;location;lat;lon;timestamp;pressure;altitude;pressure_sealevel;temperature;humidity
5703;BME280;2876;51.738;10.050;2023-02-15T00:02:32;100686.09;;;1.68;100.00
5703;BME280;2876;51.738;10.050;2023-02-15T00:08:34;100676.84;;;1.37;100.00
5703;BME280;2876;51.738;10.050;2023-02-15T00:14:36;100674.50;;;1.45;100.00
5703;BME280;2876;51.738;10.050;2023-02-15T00:20:38;100667.19;;;1.36;100.00
5703;BME280;2876;51.738;10.050;2023-02-15T00:26:41;100655.06;;;1.34;100.00
5703;BME280;2876;51.738;10.050;2023-02-15T00:32:43;100643.22;;;1.26;100.00
5703;BME280;2876;51.738;10.050;2023-02-15T00:38:45;100648.94;;;1.20;100.00
5703;BME280;2876;51.738;10.050;2023-02-15T00:44:47;100658.66;;;1.20;100.00
5703;BME280;2876;51.738;10.050;2023-02-15T00:50:53;100661.28;;;0.94;100.00
5703;BME280;2876;51.738;10.050;2023-02-15T00:56:55;100656.34;;;0.90;100.00
5703;BME280;2876;51.738;10.050;2023-02-15T01:02:57;100647.88;;;0.59;100.00
5703;BME280;2876;51.738;10.050;2023-02-15T01:08:59;100647.34;;;0.67;100.00
5703;BME280;2876;51.738;10.050;2023-02-15T01:15:01;100635.22;;;0.64;100.00
5703;BME280;2876;51.738;10.050;2023-02-15T01:21:21;100631.16;;;0.59;100.00
5703;BME280;2876;51.738;10.050;2023-02-15T01:27:23;100638.44;;;0.42;100.00
5703;BME280;2876;51.738;10.050;2023-02-15T01:33:25;100635.88;;;0.28;100.00
5703;BME280;2876;51.738;10.050;2023-02-15T01:39:27;100625.94;;;0.19;100.00
5703;BME280;2876;51.738;10.050;2023-02-15T01:45:31;100624.84;;;0.21;100.00
5703;BME280;2876;51.738;10.050;2023-02-15T01:51:35;100621.03;;;0.13;100.00
5703;BME280;2876;51.738;10.050;2023-02-15T01:57:38;100625.69;;;0.09;100.00
5703;BME280;2876;51.738;10.050;2023-02-15T02:03:49;100626.03;;;0.30;100.00
5703;BME280;2876;51.738;10.050;2023-02-15T02:09:54;100627.16;;;0.53;100.00
5703;BME280;2876;51.738;10.050;2023-02-15T02:35:52;100598.34;;;0.75;100.00
5703;BME280;2876;51.738;10.050;2023-02-15T02:48:17;100601.63;;;0.92;100.00
5703;BME280;2876;51.738;10.050;2023-02-15T02:54:20;100585.22;;;0.99;100.00
5703;BME280;2876;51.738;10.050;2023-02-15T03:00:25;100586.63;;;0.92;100.00
5703;BME280;2876;51.738;10.050;2023-02-15T03:06:55;100579.03;;;0.88;100.00
5703;BME280;2876;51.738;10.050;2023-02-15T03:12:59;100570.47;;;0.84;100.00
5703;BME280;2876;51.738;10.050;2023-02-15T03:19:43;100560.03;;;0.83;100.00
5703;BME280;2876;51.738;10.050;2023-02-15T03:25:52;100554.53;;;0.73;100.00
5703;BME280;2876;51.738;10.050;2023-02-15T03:32:01;100554.09;;;0.79;100.00
5703;BME280;2876;51.738;10.050;2023-02-15T03:38:07;100556.41;;;0.71;100.00
5703;BME280;2876;51.738;10.050;2023-02-15T03:44:30;100556.00;;;0.39;100.00
5703;BME280;2876;51.738;10.050;2023-02-15T03:50:35;100540.16;;;0.39;100.00
5703;BME280;2876;51.738;10.050;2023-02-15T03:56:57;100534.09;;;0.11;100.00
5703;BME280;2876;51.738;10.050;2023-02-15T04:03:24;100541.91;;;0.13;100.00
5703;BME280;2876;51.738;10.050;2023-02-15T04:09:29;100536.31;;;0.05;100.00
5703;BME280;2876;51.738;10.050;2023-02-15T04:15:51;100538.34;;;0.14;100.00
5703;BME280;2876;51.738;10.050;2023-02-15T04:22:08;100535.28;;;0.20;100.00
5703;BME280;2876;51.738;10.050;2023-02-15T04:28:29;100537.53;;;0.39;100.00
5703;BME280;2876;51.738;10.050;2023-02-15T04:34:31;100541.00;;;0.52;100.00
5703;BME280;2876;51.738;10.050;2023-02-15T04:40:33;100541.84;;;0.53;100.00
5703;BME280;2876;51.738;10.050;2023-02-15T04:46:35;100532.66;;;0.45;100.00
5703;BME280;2876;51.738;10.050;2023-02-15T04:52:37;100527.38;;;0.45;100.00
5703;BME280;2876;51.738;10.050;2023-02-15T04:58:39;100527.69;;;0.41;100.00
5703;BME280;2876;51.738;10.050;2023-02-15T05:04:44;100513.88;;;0.37;100.00
5703;BME280;2876;51.738;10.050;2023-02-15T05:10:48;100510.19;;;0.40;100.00
5703;BME280;2876;51.738;10.050;2023-02-15T05:16:50;100515.03;;;0.33;100.00
5703;BME280;2876;51.738;10.050;2023-02-15T05:22:55;100498.16;;;0.36;100.00
5703;BME280;2876;51.738;10.050;2023-02-15T05:28:57;100493.81;;;0.35;100.00
5703;BME280;2876;51.738;10.050;2023-02-15T05:34:59;100491.00;;;0.50;100.00
5703;BME280;2876;51.738;10.050;2023-02-15T05:41:01;100478.63;;;0.51;100.00
5703;BME280;2876;51.738;10.050;2023-02-15T05:47:03;100483.91;;;0.51;100.00
5703;BME280;2876;51.738;10.050;2023-02-15T05:53:06;100493.25;;;0.04;100.00
5703;BME280;2876;51.738;10.050;2023-02-15T05:59:08;100491.91;;;0.11;100.00
5703;BME280;2876;51.738;10.050;2023-02-15T06:05:10;100491.50;;;0.30;100.00
5703;BME280;2876;51.738;10.050;2023-02-15T06:11:12;100509.03;;;0.18;100.00
5703;BME280;2876;51.738;10.050;2023-02-15T06:17:14;100506.06;;;0.23;100.00
5703;BME280;2876;51.738;10.050;2023-02-15T06:23:16;100503.09;;;0.40;100.00
5703;BME280;2876;51.738;10.050;2023-02-15T06:29:18;100503.53;;;0.60;100.00
5703;BME280;2876;51.738;10.050;2023-02-15T06:35:20;100511.47;;;0.60;100.00
5703;BME280;2876;51.738;10.050;2023-02-15T06:41:24;100509.78;;;0.46;100.00
5703;BME280;2876;51.738;10.050;2023-02-15T06:47:26;100505.13;;;0.37;100.00
5703;BME280;2876;51.738;10.050;2023-02-15T06:53:28;100504.81;;;0.41;100.00
5703;BME280;2876;51.738;10.050;2023-02-15T06:59:29;100504.91;;;0.53;100.00
5703;BME280;2876;51.738;10.050;2023-02-15T07:05:33;100492.88;;;0.61;100.00
5703;BME280;2876;51.738;10.050;2023-02-15T07:11:35;100489.13;;;0.89;100.00
5703;BME280;2876;51.738;10.050;2023-02-15T07:17:57;100484.31;;;0.58;100.00
5703;BME280;2876;51.738;10.050;2023-02-15T07:24:00;100488.00;;;0.68;100.00
5703;BME280;2876;51.738;10.050;2023-02-15T07:30:07;100469.72;;;0.78;100.00
5703;BME280;2876;51.738;10.050;2023-02-15T07:36:09;100462.66;;;0.65;100.00
5703;BME280;2876;51.738;10.050;2023-02-15T07:42:13;100459.53;;;0.47;100.00
5703;BME280;2876;51.738;10.050;2023-02-15T07:48:15;100463.00;;;0.61;100.00
5703;BME280;2876;51.738;10.050;2023-02-15T07:54:17;100457.31;;;0.91;100.00
5703;BME280;2876;51.738;10.050;2023-02-15T08:00:21;100455.13;;;0.85;100.00
5703;BME280;2876;51.738;10.050;2023-02-15T08:06:43;100461.63;;;0.55;100.00
5703;BME280;2876;51.738;10.050;2023-02-15T08:12:45;100467.50;;;0.71;100.00
5703;BME280;2876;51.738;10.050;2023-02-15T08:18:47;100461.72;;;1.03;100.00
5703;BME280;2876;51.738;10.050;2023-02-15T08:24:49;100469.03;;;0.99;100.00
5703;BME280;2876;51.738;10.050;2023-02-15T08:30:51;100466.81;;;1.06;100.00
5703;BME280;2876;51.738;10.050;2023-02-15T08:36:53;100481.16;;;1.39;100.00
5703;BME280;2876;51.738;10.050;2023-02-15T08:42:55;100481.72;;;1.55;100.00
5703;BME280;2876;51.738;10.050;2023-02-15T08:48:58;100470.97;;;1.69;100.00
5703;BME280;2876;51.738;10.050;2023-02-15T08:55:00;100471.28;;;1.89;100.00
5703;BME280;2876;51.738;10.050;2023-02-15T09:01:15;100458.72;;;2.15;100.00
5703;BME280;2876;51.738;10.050;2023-02-15T09:07:21;100450.91;;;2.24;100.00
5703;BME280;2876;51.738;10.050;2023-02-15T09:13:23;100449.72;;;2.40;100.00
5703;BME280;2876;51.738;10.050;2023-02-15T09:19:25;100438.03;;;2.31;98.47
5703;BME280;2876;51.738;10.050;2023-02-15T09:25:27;100436.84;;;2.69;100.00
5703;BME280;2876;51.738;10.050;2023-02-15T09:31:37;100439.06;;;3.07;100.00
5703;BME280;2876;51.738;10.050;2023-02-15T09:37:40;100443.66;;;3.05;98.00
5703;BME280;2876;51.738;10.050;2023-02-15T09:56:55;100416.88;;;3.19;96.45
5703;BME280;2876;51.738;10.050;2023-02-15T10:03:13;100413.19;;;3.43;95.21
5703;BME280;2876;51.738;10.050;2023-02-15T10:23:28;100401.50;;;3.66;95.64
5703;BME280;2876;51.738;10.050;2023-02-15T10:29:37;100404.09;;;3.77;95.51
5703;BME280;2876;51.738;10.050;2023-02-15T11:07:48;100365.09;;;4.20;94.78
5703;BME280;2876;51.738;10.050;2023-02-15T11:14:23;100359.78;;;4.60;91.84
5703;BME280;2876;51.738;10.050;2023-02-15T11:20:38;100364.59;;;4.86;91.41
5703;BME280;2876;51.738;10.050;2023-02-15T11:27:00;100358.47;;;5.04;91.43
5703;BME280;2876;51.738;10.050;2023-02-15T11:33:05;100370.78;;;5.54;89.33
5703;BME280;2876;51.738;10.050;2023-02-15T11:39:12;100360.38;;;5.80;89.20
5703;BME280;2876;51.738;10.050;2023-02-15T11:45:26;100356.75;;;6.38;86.62
5703;BME280;2876;51.738;10.050;2023-02-15T11:51:29;100339.88;;;7.46;84.09
5703;BME280;2876;51.738;10.050;2023-02-15T11:57:39;100340.13;;;7.78;80.27
5703;BME280;2876;51.738;10.050;2023-02-15T12:03:48;100326.34;;;7.65;79.78
5703;BME280;2876;51.738;10.050;2023-02-15T12:10:20;100324.97;;;7.61;79.61
5703;BME280;2876;51.738;10.050;2023-02-15T12:16:20;100326.31;;;7.21;80.89
5703;BME280;2876;51.738;10.050;2023-02-15T12:22:31;100324.66;;;7.02;81.58
5703;BME280;2876;51.738;10.050;2023-02-15T12:28:37;100309.25;;;7.58;80.59
5703;BME280;2876;51.738;10.050;2023-02-15T12:34:42;100314.97;;;8.15;77.48
5703;BME280;2876;51.738;10.050;2023-02-15T12:41:02;100305.63;;;8.45;75.53
5703;BME280;2876;51.738;10.050;2023-02-15T12:47:18;100295.06;;;9.10;73.28
5703;BME280;2876;51.738;10.050;2023-02-15T12:53:33;100292.63;;;9.97;71.10
5703;BME280;2876;51.738;10.050;2023-02-15T12:59:35;100279.38;;;10.51;67.63
5703;BME280;2876;51.738;10.050;2023-02-15T13:05:42;100283.50;;;10.23;68.31
5703;BME280;2876;51.738;10.050;2023-02-15T13:11:46;100273.97;;;10.12;70.33
5703;BME280;2876;51.738;10.050;2023-02-15T13:17:48;100270.19;;;9.90;70.21
5703;BME280;2876;51.738;10.050;2023-02-15T13:24:01;100263.41;;;10.58;69.42
5703;BME280;2876;51.738;10.050;2023-02-15T13:37:05;100246.09;;;10.69;68.22
5703;BME280;2876;51.738;10.050;2023-02-15T13:56:53;100229.28;;;16.22;53.27
5703;BME280;2876;51.738;10.050;2023-02-15T14:16:48;100218.09;;;14.12;54.22
5703;BME280;2876;51.738;10.050;2023-02-15T14:23:55;100206.53;;;12.78;58.82
5703;BME280;2876;51.738;10.050;2023-02-15T14:30:21;100208.03;;;11.63;63.09
5703;BME280;2876;51.738;10.050;2023-02-15T14:36:27;100207.50;;;10.92;66.29
5703;BME280;2876;51.738;10.050;2023-02-15T14:48:49;100194.34;;;10.29;68.98
5703;BME280;2876;51.738;10.050;2023-02-15T14:54:57;100199.16;;;10.41;68.60
5703;BME280;2876;51.738;10.050;2023-02-15T15:01:11;100194.03;;;10.55;66.52
5703;BME280;2876;51.738;10.050;2023-02-15T15:07:56;100187.41;;;10.43;67.28
5703;BME280;2876;51.738;10.050;2023-02-15T15:14:00;100183.28;;;10.24;68.47
5703;BME280;2876;51.738;10.050;2023-02-15T15:26:31;100189.56;;;10.47;67.74
5703;BME280;2876;51.738;10.050;2023-02-15T15:32:35;100185.31;;;10.53;67.49
5703;BME280;2876;51.738;10.050;2023-02-15T15:39:33;100184.69;;;10.11;67.76
5703;BME280;2876;51.738;10.050;2023-02-15T15:46:06;100184.97;;;9.30;70.03
5703;BME280;2876;51.738;10.050;2023-02-15T15:52:16;100188.69;;;8.55;73.89
5703;BME280;2876;51.738;10.050;2023-02-15T15:58:19;100181.47;;;7.97;75.54
5703;BME280;2876;51.738;10.050;2023-02-15T16:04:31;100177.97;;;7.28;78.87
5703;BME280;2876;51.738;10.050;2023-02-15T16:10:34;100180.53;;;6.68;80.49
5703;BME280;2876;51.738;10.050;2023-02-15T16:16:37;100173.91;;;6.37;81.12
5703;BME280;2876;51.738;10.050;2023-02-15T16:22:39;100176.13;;;5.96;81.16
5703;BME280;2876;51.738;10.050;2023-02-15T16:28:53;100174.69;;;5.37;83.66
5703;BME280;2876;51.738;10.050;2023-02-15T16:35:01;100182.75;;;4.88;86.23
5703;BME280;2876;51.738;10.050;2023-02-15T16:41:04;100182.63;;;4.70;87.13
5703;BME280;2876;51.738;10.050;2023-02-15T16:47:19;100182.06;;;4.38;89.21
5703;BME280;2876;51.738;10.050;2023-02-15T16:53:26;100167.47;;;4.03;90.38
5703;BME280;2876;51.738;10.050;2023-02-15T16:59:34;100182.94;;;3.88;90.97
5703;BME280;2876;51.738;10.050;2023-02-15T17:11:46;100186.81;;;3.44;93.52
5703;BME280;2876;51.738;10.050;2023-02-15T17:17:48;100191.09;;;3.35;94.43
5703;BME280;2876;51.738;10.050;2023-02-15T17:23:51;100178.38;;;3.29;94.79
5703;BME280;2876;51.738;10.050;2023-02-15T17:30:02;100178.53;;;3.27;95.46
5703;BME280;2876;51.738;10.050;2023-02-15T17:42:10;100191.72;;;2.97;96.53
5703;BME280;2876;51.738;10.050;2023-02-15T17:48:21;100204.84;;;2.98;96.46
5703;BME280;2876;51.738;10.050;2023-02-15T17:54:24;100196.19;;;2.96;96.56
5703;BME280;2876;51.738;10.050;2023-02-15T18:00:59;100187.13;;;2.99;96.81
5703;BME280;2876;51.738;10.050;2023-02-15T18:07:24;100196.44;;;3.14;96.71
5703;BME280;2876;51.738;10.050;2023-02-15T18:13:45;100183.38;;;2.80;97.03
5703;BME280;2876;51.738;10.050;2023-02-15T18:19:47;100192.94;;;2.72;97.51
5703;BME280;2876;51.738;10.050;2023-02-15T18:25:49;100179.50;;;2.64;97.27
5703;BME280;2876;51.738;10.050;2023-02-15T18:31:53;100195.69;;;2.49;97.02
5703;BME280;2876;51.738;10.050;2023-02-15T18:37:58;100178.97;;;2.49;97.06
5703;BME280;2876;51.738;10.050;2023-02-15T18:44:01;100186.06;;;2.48;97.70
5703;BME280;2876;51.738;10.050;2023-02-15T18:50:04;100184.78;;;2.32;98.45
5703;BME280;2876;51.738;10.050;2023-02-15T18:56:14;100187.25;;;2.12;98.52
5703;BME280;2876;51.738;10.050;2023-02-15T19:02:18;100192.91;;;2.08;98.82
5703;BME280;2876;51.738;10.050;2023-02-15T19:08:21;100190.78;;;2.01;98.96
5703;BME280;2876;51.738;10.050;2023-02-15T19:14:29;100183.31;;;2.07;98.52
5703;BME280;2876;51.738;10.050;2023-02-15T19:20:36;100172.16;;;1.92;98.80
5703;BME280;2876;51.738;10.050;2023-02-15T19:26:39;100169.91;;;1.87;98.87
5703;BME280;2876;51.738;10.050;2023-02-15T19:32:47;100169.16;;;1.85;99.65
5703;BME280;2876;51.738;10.050;2023-02-15T19:38:51;100179.53;;;1.66;100.00
5703;BME280;2876;51.738;10.050;2023-02-15T19:44:55;100180.97;;;1.70;99.81
5703;BME280;2876;51.738;10.050;2023-02-15T19:50:57;100189.50;;;1.62;100.00
5703;BME280;2876;51.738;10.050;2023-02-15T19:56:59;100186.25;;;1.47;100.00
5703;BME280;2876;51.738;10.050;2023-02-15T20:03:01;100196.72;;;1.49;100.00
5703;BME280;2876;51.738;10.050;2023-02-15T20:09:04;100200.69;;;1.66;100.00
5703;BME280;2876;51.738;10.050;2023-02-15T20:21:25;100174.84;;;1.69;100.00
5703;BME280;2876;51.738;10.050;2023-02-15T20:27:27;100173.63;;;1.62;100.00
5703;BME280;2876;51.738;10.050;2023-02-15T20:33:29;100184.31;;;1.49;100.00
5703;BME280;2876;51.738;10.050;2023-02-15T20:39:31;100197.91;;;1.45;100.00
5703;BME280;2876;51.738;10.050;2023-02-15T20:45:35;100200.06;;;1.29;100.00
5703;BME280;2876;51.738;10.050;2023-02-15T20:51:37;100211.97;;;1.34;100.00
5703;BME280;2876;51.738;10.050;2023-02-15T20:57:41;100209.06;;;1.26;100.00
5703;BME280;2876;51.738;10.050;2023-02-15T21:03:43;100203.19;;;1.45;100.00
5703;BME280;2876;51.738;10.050;2023-02-15T21:09:46;100205.34;;;1.29;100.00
5703;BME280;2876;51.738;10.050;2023-02-15T21:15:50;100214.25;;;1.27;100.00
5703;BME280;2876;51.738;10.050;2023-02-15T21:21:53;100202.94;;;1.14;100.00
5703;BME280;2876;51.738;10.050;2023-02-15T21:27:55;100184.09;;;1.19;100.00
5703;BME280;2876;51.738;10.050;2023-02-15T21:33:57;100181.69;;;1.16;100.00
5703;BME280;2876;51.738;10.050;2023-02-15T21:39:59;100189.47;;;1.06;100.00
5703;BME280;2876;51.738;10.050;2023-02-15T21:46:17;100190.25;;;0.84;100.00
5703;BME280;2876;51.738;10.050;2023-02-15T21:52:38;100197.97;;;0.87;100.00
5703;BME280;2876;51.738;10.050;2023-02-15T21:58:40;100192.81;;;0.97;100.00
5703;BME280;2876;51.738;10.050;2023-02-15T22:04:42;100187.53;;;0.97;100.00
5703;BME280;2876;51.738;10.050;2023-02-15T22:10:44;100197.69;;;0.90;100.00
5703;BME280;2876;51.738;10.050;2023-02-15T22:16:46;100194.00;;;1.04;100.00
5703;BME280;2876;51.738;10.050;2023-02-15T22:22:49;100201.00;;;1.05;100.00
5703;BME280;2876;51.738;10.050;2023-02-15T22:28:51;100208.66;;;1.08;100.00
5703;BME280;2876;51.738;10.050;2023-02-15T22:34:54;100199.56;;;1.12;100.00
5703;BME280;2876;51.738;10.050;2023-02-15T22:41:00;100209.97;;;0.91;100.00
5703;BME280;2876;51.738;10.050;2023-02-15T22:47:08;100202.34;;;0.75;100.00
5703;BME280;2876;51.738;10.050;2023-02-15T22:53:16;100188.09;;;0.89;100.00
5703;BME280;2876;51.738;10.050;2023-02-15T22:59:25;100184.38;;;0.81;100.00
5703;BME280;2876;51.738;10.050;2023-02-15T23:05:30;100184.16;;;0.95;100.00
5703;BME280;2876;51.738;10.050;2023-02-15T23:11:32;100187.00;;;0.81;100.00
5703;BME280;2876;51.738;10.050;2023-02-15T23:17:34;100184.56;;;0.66;100.00
5703;BME280;2876;51.738;10.050;2023-02-15T23:23:39;100188.28;;;0.64;100.00
5703;BME280;2876;51.738;10.050;2023-02-15T23:29:41;100179.56;;;0.74;100.00
5703;BME280;2876;51.738;10.050;2023-02-15T23:35:43;100174.28;;;0.86;100.00
5703;BME280;2876;51.738;10.050;2023-02-15T23:41:45;100178.72;;;0.74;100.00
5703;BME280;2876;51.738;10.050;2023-02-15T23:47:47;100172.81;;;0.59;100.00
5703;BME280;2876;51.738;10.050;2023-02-15T23:54:08;100196.56;;;0.70;100.00
